Terminal Aerodrome Forecast
Issued by NWS Glasgow, MT

Home | Current Version | Previous Version | Text Only | Print | Product List | Glossary On
Versions: 1 2 3 4 5 6 7 8 9 10 11 12 13
172
FTUS45 KGGW 190520
TAFGGW
TAF
KGGW 190520Z 1906/2006 11011KT P6SM FEW250
     FM191000 22008KT P6SM FEW150
     FM192300 33015KT P6SM FEW250
     FM200500 03008KT P6SM SCT120=

USA.gov is the U.S. government's official web portal to all federal, state and local government web resources and services.